createdAt,value
2019-05-19T00:00:20.125Z,74.12
2019-05-19T00:02:54.667Z,72.22
2019-05-19T00:05:28.617Z,79.30
2019-05-19T00:08:02.973Z,74.17
2019-05-19T00:10:37.714Z,73.92
2019-05-19T00:13:13.584Z,77.80
2019-05-19T00:15:49.169Z,81.97
2019-05-19T00:18:26.721Z,82.72
2019-05-19T00:21:03.768Z,80.05
2019-05-19T00:23:36.774Z,72.90
2019-05-19T00:26:19.808Z,66.12
2019-05-19T00:28:52.916Z,73.65
2019-05-19T00:31:28.554Z,75.95
2019-05-19T00:34:08.403Z,88.03
2019-05-19T00:36:41.741Z,89.17
2019-05-19T00:39:16.160Z,77.53
2019-05-19T00:41:50.647Z,90.45
2019-05-19T00:44:25.698Z,73.20
2019-05-19T00:47:35.210Z,67.15
2019-05-19T00:49:54.847Z,66.42
2019-05-19T00:52:33.381Z,61.35
2019-05-19T00:55:10.129Z,57.33
2019-05-19T00:57:53.157Z,60.23
2019-05-19T01:00:22.832Z,55.98
2019-05-19T01:03:06.482Z,72.25
2019-05-19T01:05:48.491Z,65.95
2019-05-19T01:08:25.435Z,61.60
2019-05-19T01:10:58.873Z,69.27
2019-05-19T01:13:36.174Z,55.10
2019-05-19T01:16:14.424Z,92.37
2019-05-19T01:18:49.121Z,62.83
2019-05-19T01:21:35.261Z,40.17
2019-05-19T01:24:16.586Z,56.92
2019-05-19T01:26:55.257Z,50.58
2019-05-19T01:29:31.131Z,54.90
2019-05-19T01:32:08.154Z,53.73
2019-05-19T01:34:42.653Z,50.80
2019-05-19T01:37:16.744Z,43.23
2019-05-19T01:39:51.210Z,51.65
2019-05-19T01:42:25.833Z,54.80
2019-05-19T01:45:00.541Z,52.13
2019-05-19T01:47:37.110Z,50.73
2019-05-19T01:50:17.911Z,50.12
2019-05-19T01:52:51.304Z,42.80
2019-05-19T01:55:26.968Z,45.63
2019-05-19T01:58:01.583Z,46.40
2019-05-19T02:00:36.730Z,47.73
2019-05-19T02:03:11.311Z,46.48
2019-05-19T02:05:46.059Z,43.25
2019-05-19T02:08:20.526Z,45.88
2019-05-19T02:10:55.404Z,41.53
2019-05-19T02:13:29.792Z,43.23
2019-05-19T02:16:05.524Z,43.05
2019-05-19T02:18:43.589Z,37.83
2019-05-19T02:21:18.533Z,51.02
2019-05-19T02:23:53.128Z,47.20
2019-05-19T02:26:28.373Z,52.17
2019-05-19T02:29:03.072Z,40.88
2019-05-19T02:31:38.276Z,45.33
2019-05-19T02:34:15.537Z,46.63
2019-05-19T02:36:50.313Z,43.55
2019-05-19T02:39:25.031Z,38.90
2019-05-19T02:42:01.508Z,48.15
2019-05-19T02:44:37.375Z,47.35
2019-05-19T02:47:12.752Z,52.58
2019-05-19T02:49:48.180Z,47.95
2019-05-19T02:52:24.532Z,45.20
2019-05-19T02:55:01.266Z,46.42
2019-05-19T02:57:37.414Z,47.78
2019-05-19T03:00:13.199Z,48.58
2019-05-19T03:02:47.923Z,45.30
2019-05-19T03:05:22.564Z,52.85
2019-05-19T03:07:56.838Z,50.78
2019-05-19T03:10:31.102Z,51.50
2019-05-19T03:13:08.639Z,45.10
2019-05-19T03:15:45.299Z,45.33
2019-05-19T03:18:20.705Z,38.90
2019-05-19T03:21:09.923Z,45.67
2019-05-19T03:23:32.454Z,63.35
2019-05-19T03:26:07.982Z,54.33
2019-05-19T03:28:43.780Z,47.75
2019-05-19T03:31:37.060Z,45.48
2019-05-19T03:34:20.520Z,37.27
2019-05-19T03:36:58.255Z,46.50
2019-05-19T03:39:31.580Z,51.58
2019-05-19T03:42:10.082Z,40.30
2019-05-19T03:44:42.791Z,49.65
2019-05-19T03:47:19.387Z,47.40
2019-05-19T03:49:54.124Z,48.52
2019-05-19T03:52:31.725Z,49.95
2019-05-19T03:55:08.537Z,46.90
2019-05-19T03:57:43.900Z,41.15
2019-05-19T04:00:21.177Z,48.38
2019-05-19T04:02:57.749Z,44.98
2019-05-19T04:05:32.517Z,39.92
2019-05-19T04:08:07.258Z,39.58
2019-05-19T04:10:41.879Z,39.33
2019-05-19T04:13:17.522Z,43.33
2019-05-19T04:15:52.174Z,40.65
2019-05-19T04:18:27.248Z,44.58
2019-05-19T04:21:01.717Z,44.42
2019-05-19T04:23:36.220Z,44.70
2019-05-19T04:26:11.872Z,40.80
2019-05-19T04:28:47.581Z,37.23
2019-05-19T04:31:22.553Z,41.35
2019-05-19T04:33:59.466Z,45.73
2019-05-19T04:36:37.815Z,45.40
2019-05-19T04:39:13.539Z,38.80
2019-05-19T04:41:47.991Z,42.38
2019-05-19T04:44:22.989Z,44.50
2019-05-19T04:47:08.312Z,41.20
2019-05-19T04:49:44.117Z,45.20
2019-05-19T04:52:19.968Z,39.03
2019-05-19T04:54:54.302Z,42.10
2019-05-19T04:57:29.052Z,37.50
2019-05-19T05:00:05.591Z,40.95
2019-05-19T05:05:32.288Z,41.75
2019-05-19T05:08:08.458Z,36.48
2019-05-19T05:11:04.810Z,43.28
2019-05-19T05:13:36.283Z,38.63
2019-05-19T05:16:11.828Z,38.50
2019-05-19T05:18:52.471Z,39.98
2019-05-19T05:21:27.901Z,39.13
2019-05-19T05:24:02.869Z,41.40
2019-05-19T05:26:38.953Z,43.60
2019-05-19T05:29:14.763Z,38.17
2019-05-19T05:31:49.594Z,39.13
2019-05-19T05:34:25.684Z,44.98
2019-05-19T05:37:16.495Z,41.77
2019-05-19T05:39:52.221Z,38.25
2019-05-19T05:42:31.065Z,41.30
2019-05-19T05:45:06.233Z,38.67
2019-05-19T05:47:42.431Z,39.30
2019-05-19T05:50:22.340Z,41.05
2019-05-19T05:52:57.843Z,44.55
2019-05-19T05:55:35.251Z,47.45
2019-05-19T05:58:10.166Z,38.17
2019-05-19T06:00:44.392Z,35.70
2019-05-19T06:03:26.517Z,35.60
2019-05-19T06:06:08.611Z,40.05
2019-05-19T06:08:38.196Z,42.17
2019-05-19T06:11:17.614Z,43.02
2019-05-19T06:13:55.120Z,40.88
2019-05-19T06:16:30.835Z,45.40
2019-05-19T06:19:06.560Z,44.55
2019-05-19T06:21:41.136Z,36.50
2019-05-19T06:24:19.408Z,40.48
2019-05-19T06:26:55.209Z,47.13
2019-05-19T06:29:31.274Z,40.52
2019-05-19T06:32:06.521Z,40.15
2019-05-19T06:34:42.073Z,35.17
2019-05-19T06:37:16.604Z,40.63
2019-05-19T06:39:51.342Z,35.25
2019-05-19T06:42:25.811Z,38.30
2019-05-19T06:45:00.745Z,37.15
2019-05-19T06:47:39.832Z,33.55
2019-05-19T06:50:14.430Z,42.85
2019-05-19T06:52:49.132Z,41.65
2019-05-19T06:55:28.245Z,37.95
2019-05-19T06:58:03.652Z,43.78
2019-05-19T07:00:38.114Z,39.98
2019-05-19T07:03:23.561Z,38.30
2019-05-19T07:05:59.224Z,43.52
2019-05-19T07:08:33.523Z,52.27
2019-05-19T07:11:12.561Z,48.23
2019-05-19T07:13:54.026Z,53.98
2019-05-19T07:16:29.855Z,63.85
2019-05-19T07:19:07.306Z,58.98
2019-05-19T07:21:43.691Z,57.48
2019-05-19T07:24:21.104Z,64.72
2019-05-19T07:26:57.673Z,64.05
2019-05-19T07:29:33.454Z,57.55
2019-05-19T07:32:11.745Z,68.07
2019-05-19T07:34:46.318Z,58.08
2019-05-19T07:37:23.790Z,66.28
2019-05-19T07:39:58.120Z,74.65
2019-05-19T07:42:36.058Z,67.50
2019-05-19T07:45:11.670Z,54.65
2019-05-19T07:47:48.036Z,58.52
2019-05-19T07:50:24.723Z,65.83
2019-05-19T07:53:00.278Z,66.22
2019-05-19T07:55:35.945Z,65.75
2019-05-19T07:58:13.045Z,56.77
2019-05-19T08:00:47.913Z,68.52
2019-05-19T08:03:24.285Z,68.57
2019-05-19T08:06:02.355Z,62.13
2019-05-19T08:08:36.823Z,59.50
2019-05-19T08:11:12.606Z,59.45
2019-05-19T08:13:46.960Z,63.78
2019-05-19T08:16:24.216Z,57.55
2019-05-19T08:19:01.399Z,55.65
2019-05-19T08:21:37.330Z,63.70
2019-05-19T08:24:17.197Z,56.88
2019-05-19T08:26:52.103Z,63.10
2019-05-19T08:29:30.417Z,65.83
2019-05-19T08:32:05.313Z,65.83
2019-05-19T08:34:39.598Z,67.97
2019-05-19T08:37:13.965Z,60.03
2019-05-19T08:39:49.313Z,68.50
2019-05-19T08:42:24.257Z,66.37
2019-05-19T08:44:59.996Z,55.28
2019-05-19T08:47:36.741Z,53.35
2019-05-19T08:50:14.826Z,66.97
2019-05-19T08:52:49.548Z,61.92
2019-05-19T08:55:25.442Z,61.45
2019-05-19T08:58:00.068Z,52.90
2019-05-19T09:00:38.571Z,53.50
2019-05-19T09:03:13.893Z,57.40
2019-05-19T09:05:50.591Z,51.37
2019-05-19T09:08:25.146Z,52.53
2019-05-19T09:11:00.904Z,53.28
2019-05-19T09:13:35.680Z,50.65
2019-05-19T09:16:11.022Z,42.45
2019-05-19T09:18:45.250Z,42.67
2019-05-19T09:21:20.155Z,44.23
2019-05-19T09:23:55.109Z,49.10
2019-05-19T09:26:30.947Z,50.78
2019-05-19T09:29:07.023Z,57.53
2019-05-19T09:31:43.267Z,52.40
2019-05-19T09:34:17.864Z,56.33
2019-05-19T09:36:52.557Z,51.23
2019-05-19T09:39:28.033Z,54.45
2019-05-19T09:42:03.611Z,46.37
2019-05-19T09:44:38.931Z,46.30
2019-05-19T09:47:13.261Z,47.90
2019-05-19T09:49:49.237Z,69.65
2019-05-19T09:52:23.690Z,56.50
2019-05-19T09:54:59.675Z,44.53
2019-05-19T09:57:36.526Z,47.73
2019-05-19T10:00:11.649Z,51.80
2019-05-19T10:02:46.829Z,56.28
2019-05-19T10:05:22.518Z,87.15
2019-05-19T10:07:57.067Z,46.65
2019-05-19T10:10:43.736Z,52.83
2019-05-19T10:13:18.171Z,54.08
2019-05-19T10:15:55.517Z,53.08
2019-05-19T10:18:30.008Z,50.95
2019-05-19T10:21:04.751Z,49.30
2019-05-19T10:23:39.530Z,52.27
2019-05-19T10:26:14.882Z,53.02
2019-05-19T10:28:49.368Z,47.85
2019-05-19T10:31:23.630Z,52.35
2019-05-19T10:33:58.255Z,64.75
2019-05-19T10:36:33.119Z,66.92
2019-05-19T10:39:08.976Z,62.88
2019-05-19T10:41:43.453Z,54.18
2019-05-19T10:44:17.902Z,52.10
2019-05-19T10:46:52.341Z,54.05
2019-05-19T10:49:26.816Z,47.73
2019-05-19T10:52:01.356Z,49.33
2019-05-19T10:54:35.399Z,61.40
2019-05-19T10:57:12.066Z,63.63
2019-05-19T10:59:47.141Z,107.43
2019-05-19T11:02:21.548Z,56.53
2019-05-19T11:04:56.077Z,59.10
2019-05-19T11:07:30.147Z,49.60
2019-05-19T11:10:05.913Z,92.82
2019-05-19T11:12:41.478Z,60.43
2019-05-19T11:15:16.597Z,63.10
2019-05-19T11:17:52.486Z,58.50
2019-05-19T11:20:28.127Z,72.78
2019-05-19T11:23:02.209Z,64.67
2019-05-19T11:25:49.273Z,55.40
2019-05-19T11:28:12.459Z,58.95
2019-05-19T11:30:47.990Z,52.70
2019-05-19T11:33:23.277Z,59.15
2019-05-19T11:35:57.611Z,53.38
2019-05-19T11:38:32.000Z,59.10
2019-05-19T11:41:07.117Z,58.08
2019-05-19T11:43:42.439Z,62.85
2019-05-19T11:46:19.699Z,66.82
2019-05-19T11:48:54.732Z,75.97
2019-05-19T11:51:28.912Z,67.15
2019-05-19T11:54:04.033Z,90.62
2019-05-19T11:56:38.323Z,57.80
2019-05-19T11:59:12.829Z,54.77
2019-05-19T12:01:51.102Z,53.23
2019-05-19T12:04:26.955Z,55.45
2019-05-19T12:07:04.703Z,56.65
2019-05-19T12:09:40.769Z,58.60
2019-05-19T12:12:16.334Z,60.65
2019-05-19T12:14:51.486Z,56.95
2019-05-19T12:17:26.129Z,68.12
2019-05-19T12:20:00.697Z,66.80
2019-05-19T12:22:36.205Z,69.00
2019-05-19T12:25:15.302Z,68.75
2019-05-19T12:27:51.345Z,64.47
2019-05-19T12:30:30.797Z,69.37
2019-05-19T12:33:07.716Z,71.25
2019-05-19T12:35:47.341Z,63.28
2019-05-19T12:38:23.772Z,64.07
2019-05-19T12:40:58.756Z,65.62
2019-05-19T12:43:35.127Z,69.67
2019-05-19T12:46:16.085Z,70.83
2019-05-19T12:48:46.908Z,60.45
2019-05-19T12:51:26.654Z,60.00
2019-05-19T12:53:59.729Z,60.95
2019-05-19T12:56:39.992Z,62.40
2019-05-19T12:59:13.079Z,65.12
2019-05-19T13:01:48.738Z,67.72
2019-05-19T13:04:24.954Z,64.70
2019-05-19T13:07:01.525Z,60.75
2019-05-19T13:09:38.649Z,66.07
2019-05-19T13:12:18.970Z,73.20
2019-05-19T13:14:53.718Z,69.42
2019-05-19T13:17:29.230Z,74.70
2019-05-19T13:20:09.294Z,66.60
2019-05-19T13:22:51.435Z,68.92
2019-05-19T13:25:21.536Z,73.87
2019-05-19T13:30:51.489Z,61.42
2019-05-19T13:33:33.061Z,79.92
2019-05-19T13:36:18.353Z,70.30
2019-05-19T13:38:53.173Z,73.47
2019-05-19T13:41:28.887Z,67.20
2019-05-19T13:44:14.550Z,73.33
2019-05-19T13:46:45.130Z,75.08
2019-05-19T13:49:23.700Z,66.67
2019-05-19T13:51:59.513Z,64.77
2019-05-19T13:54:41.618Z,66.67
2019-05-19T13:57:27.148Z,69.00
2019-05-19T13:59:58.739Z,67.67
2019-05-19T14:02:39.068Z,63.83
2019-05-19T14:05:23.581Z,73.92
2019-05-19T14:07:59.491Z,68.95
2019-05-19T14:10:37.863Z,73.28
2019-05-19T14:13:15.733Z,65.45
2019-05-19T14:15:53.652Z,68.78
2019-05-19T14:18:36.838Z,70.15
2019-05-19T14:21:26.062Z,65.37
2019-05-19T14:24:13.331Z,70.17
2019-05-19T14:26:52.402Z,75.50
2019-05-19T14:29:28.212Z,65.92
2019-05-19T14:32:03.822Z,66.80
2019-05-19T14:34:38.617Z,76.07
2019-05-19T14:37:16.102Z,65.70
2019-05-19T14:39:51.889Z,72.32
2019-05-19T14:42:45.775Z,63.83
2019-05-19T14:45:33.241Z,76.60
2019-05-19T14:48:13.441Z,78.05
2019-05-19T14:50:48.886Z,79.87
2019-05-19T14:53:26.115Z,70.50
2019-05-19T14:56:02.329Z,62.38
2019-05-19T14:58:49.038Z,52.95
2019-05-19T15:01:27.359Z,52.78
2019-05-19T15:04:07.228Z,46.53
2019-05-19T15:06:41.994Z,47.15
2019-05-19T15:09:24.260Z,45.40
2019-05-19T15:12:14.823Z,38.92
2019-05-19T15:14:50.493Z,39.63
2019-05-19T15:17:24.942Z,37.00
2019-05-19T15:20:07.376Z,36.93
2019-05-19T15:22:48.511Z,25.27
2019-05-19T15:25:32.394Z,20.48
2019-05-19T15:28:14.918Z,23.52
2019-05-19T15:30:52.383Z,20.15
2019-05-19T15:33:38.247Z,24.52
2019-05-19T15:36:13.241Z,21.23
2019-05-19T15:38:51.690Z,19.55
2019-05-19T15:41:36.270Z,24.45
2019-05-19T15:44:19.952Z,22.15
2019-05-19T15:46:54.600Z,23.07
2019-05-19T15:49:33.750Z,22.80
2019-05-19T15:52:09.497Z,19.67
2019-05-19T15:54:45.329Z,21.15
2019-05-19T15:57:21.848Z,30.80
2019-05-19T15:59:59.178Z,24.00
2019-05-19T16:02:36.223Z,17.37
2019-05-19T16:05:17.058Z,17.75
2019-05-19T16:07:55.745Z,18.25
2019-05-19T16:10:30.449Z,15.48
2019-05-19T16:13:05.172Z,11.12
2019-05-19T16:15:43.350Z,11.75
2019-05-19T16:18:18.056Z,9.50
2019-05-19T16:20:52.308Z,12.25
2019-05-19T16:23:29.467Z,8.58
2019-05-19T16:26:06.090Z,10.88
2019-05-19T16:28:42.192Z,11.12
2019-05-19T16:31:17.596Z,11.57
2019-05-19T16:33:52.526Z,15.03
2019-05-19T16:36:28.517Z,20.77
2019-05-19T16:39:03.973Z,19.35
2019-05-19T16:41:39.375Z,19.73
2019-05-19T16:44:14.065Z,20.82
2019-05-19T16:46:50.514Z,25.65
2019-05-19T16:49:26.200Z,22.98
2019-05-19T16:52:00.727Z,21.33
2019-05-19T16:54:42.095Z,23.67
2019-05-19T16:57:15.766Z,26.90
2019-05-19T16:59:50.403Z,23.90
2019-05-19T17:02:25.142Z,25.17
2019-05-19T17:04:59.453Z,28.75
2019-05-19T17:07:34.169Z,24.07
2019-05-19T17:10:12.747Z,26.82
2019-05-19T17:12:48.487Z,29.05
2019-05-19T17:15:23.464Z,27.27
2019-05-19T17:17:58.185Z,26.80
2019-05-19T17:20:33.587Z,22.87
2019-05-19T17:23:08.200Z,24.40
2019-05-19T17:25:43.130Z,26.00
2019-05-19T17:28:17.516Z,21.12
2019-05-19T17:30:51.757Z,24.92
2019-05-19T17:33:25.975Z,21.25
2019-05-19T17:36:00.543Z,25.57
2019-05-19T17:38:35.158Z,26.73
2019-05-19T17:41:09.698Z,22.17
2019-05-19T17:43:44.209Z,23.12
2019-05-19T17:46:18.728Z,18.87
2019-05-19T17:48:52.930Z,22.37
2019-05-19T17:51:27.159Z,17.92
2019-05-19T17:54:01.947Z,19.00
2019-05-19T17:56:36.384Z,19.05
2019-05-19T17:59:16.435Z,21.60
2019-05-19T18:01:46.973Z,19.37
2019-05-19T18:04:21.491Z,13.72
2019-05-19T18:06:56.459Z,13.22
2019-05-19T18:09:30.714Z,19.67
2019-05-19T18:12:05.249Z,12.90
2019-05-19T18:14:39.726Z,13.43
2019-05-19T18:17:14.195Z,12.58
2019-05-19T18:19:48.813Z,17.00
2019-05-19T18:22:23.629Z,18.98
2019-05-19T18:24:59.008Z,13.28
2019-05-19T18:27:33.126Z,18.30
2019-05-19T18:30:07.986Z,12.45
2019-05-19T18:32:42.299Z,19.05
2019-05-19T18:35:16.715Z,13.05
2019-05-19T18:37:50.888Z,14.47
2019-05-19T18:40:25.481Z,14.73
2019-05-19T18:43:00.283Z,18.05
2019-05-19T18:45:35.244Z,10.90
2019-05-19T18:48:09.775Z,14.33
2019-05-19T18:50:47.059Z,12.55
2019-05-19T18:53:21.374Z,14.80
2019-05-19T18:55:55.787Z,16.10
2019-05-19T18:58:30.598Z,12.33
2019-05-19T19:01:05.077Z,14.85
2019-05-19T19:03:40.467Z,14.73
2019-05-19T19:06:21.911Z,13.32
2019-05-19T19:11:50.604Z,12.15
2019-05-19T19:17:31.388Z,12.82
2019-05-19T19:20:11.388Z,12.73
2019-05-19T19:22:46.802Z,15.75
2019-05-19T19:25:28.846Z,17.52
2019-05-19T19:28:19.365Z,18.48
2019-05-19T19:30:53.813Z,17.15
2019-05-19T19:33:30.855Z,16.82
2019-05-19T19:36:13.255Z,13.72
2019-05-19T19:38:58.952Z,16.48
2019-05-19T19:41:35.286Z,18.57
2019-05-19T19:44:51.791Z,17.50
2019-05-19T19:47:09.213Z,16.80
2019-05-19T19:49:43.339Z,18.95
2019-05-19T19:52:17.800Z,14.40
2019-05-19T19:54:52.710Z,21.40
2019-05-19T19:57:27.243Z,17.55
2019-05-19T20:00:01.609Z,22.32
2019-05-19T20:02:36.332Z,15.70
2019-05-19T20:05:11.180Z,19.50
2019-05-19T20:07:45.492Z,18.87
2019-05-19T20:10:19.920Z,19.17
2019-05-19T20:12:54.149Z,22.15
2019-05-19T20:15:28.686Z,18.75
2019-05-19T20:18:03.070Z,16.32
2019-05-19T20:20:37.497Z,17.70
2019-05-19T20:23:11.832Z,17.35
2019-05-19T20:25:46.191Z,21.60
2019-05-19T20:28:20.685Z,19.05
2019-05-19T20:30:55.214Z,18.15
2019-05-19T20:33:29.504Z,21.30
2019-05-19T20:36:04.181Z,19.90
2019-05-19T20:38:38.886Z,19.20
2019-05-19T20:41:13.414Z,19.20
2019-05-19T20:43:48.169Z,23.50
2019-05-19T20:46:22.592Z,22.50
2019-05-19T20:48:57.009Z,19.15
2019-05-19T20:51:32.539Z,18.20
2019-05-19T20:54:07.136Z,18.55
2019-05-19T20:56:41.491Z,19.50
2019-05-19T20:59:15.962Z,20.85
2019-05-19T21:01:50.661Z,21.20
2019-05-19T21:04:24.863Z,23.60
2019-05-19T21:06:59.535Z,21.90
2019-05-19T21:09:34.265Z,25.77
2019-05-19T21:12:08.336Z,19.00
2019-05-19T21:14:42.983Z,22.52
2019-05-19T21:17:17.538Z,22.82
2019-05-19T21:19:52.702Z,20.57
2019-05-19T21:22:27.287Z,18.92
2019-05-19T21:25:01.916Z,17.30
2019-05-19T21:27:36.339Z,17.75
2019-05-19T21:30:11.583Z,20.75
2019-05-19T21:32:46.272Z,18.35
2019-05-19T21:35:20.396Z,18.95
2019-05-19T21:37:55.297Z,19.60
2019-05-19T21:40:30.180Z,17.40
2019-05-19T21:43:04.698Z,16.40
2019-05-19T21:45:39.139Z,14.90
2019-05-19T21:48:13.934Z,15.75
2019-05-19T21:50:47.847Z,16.62
2019-05-19T21:53:22.341Z,20.75
2019-05-19T21:55:57.030Z,17.65
2019-05-19T21:58:31.792Z,20.17
2019-05-19T22:01:06.048Z,20.37
2019-05-19T22:03:40.733Z,19.27
2019-05-19T22:06:15.015Z,19.07
2019-05-19T22:08:49.608Z,22.35
2019-05-19T22:11:24.180Z,24.00
2019-05-19T22:13:58.857Z,19.20
2019-05-19T22:16:33.186Z,21.50
2019-05-19T22:19:07.821Z,18.87
2019-05-19T22:21:42.431Z,18.60
2019-05-19T22:24:16.628Z,20.72
2019-05-19T22:26:51.087Z,20.15
2019-05-19T22:29:25.668Z,22.42
2019-05-19T22:31:59.850Z,19.25
2019-05-19T22:34:34.962Z,25.68
2019-05-19T22:37:09.812Z,19.05
2019-05-19T22:39:44.581Z,90.65
2019-05-19T22:42:19.526Z,44.53
2019-05-19T22:44:54.283Z,98.92
2019-05-19T22:47:28.612Z,31.70
2019-05-19T22:50:02.927Z,40.20
2019-05-19T22:52:36.976Z,24.52
2019-05-19T22:55:11.261Z,26.02
2019-05-19T22:57:46.058Z,20.92
2019-05-19T23:00:21.326Z,22.48
2019-05-19T23:02:55.924Z,22.60
2019-05-19T23:05:30.511Z,21.30
2019-05-19T23:08:04.978Z,21.95
2019-05-19T23:10:39.653Z,34.83
2019-05-19T23:13:13.866Z,39.03
2019-05-19T23:15:49.470Z,26.55
2019-05-19T23:18:24.169Z,20.20
2019-05-19T23:20:59.011Z,24.65
2019-05-19T23:23:33.751Z,19.98
2019-05-19T23:26:08.544Z,25.40
2019-05-19T23:28:42.863Z,24.95
2019-05-19T23:31:16.926Z,21.42
2019-05-19T23:33:51.380Z,23.83
2019-05-19T23:36:25.429Z,22.58
2019-05-19T23:39:00.138Z,22.52
2019-05-19T23:41:35.970Z,23.50
2019-05-19T23:44:10.695Z,20.97
2019-05-19T23:46:45.487Z,23.05
2019-05-19T23:49:19.642Z,29.40
2019-05-19T23:51:54.211Z,25.62
2019-05-19T23:54:28.863Z,21.82
2019-05-19T23:57:03.180Z,22.35
2019-05-19T23:59:37.540Z,29.63
